Time;durP1;ratioP1;P1;durP2;ratioP2;P2;SDS_P1;SDS_P2;PMS_P1;PMS_P2;Temp;Humidity;BMP_temperature;BMP_pressure;BME280_temperature;BME280_humidity;BME280_pressure;Samples;Min_cycle;Max_cycle;Signal;HPM_P1;HPM_P2
2022/09/28 00:01:34;;;;;;;3.38;1.52;;;8.70;99.90;;;;;;5100792;28;20023;-66
2022/09/28 00:04:00;;;;;;;4.55;1.85;;;8.70;99.90;;;;;;5102190;28;20062;-66
2022/09/28 00:06:29;;;;;;;2.58;1.85;;;8.70;99.90;;;;;;5098624;28;20473;-66
2022/09/28 00:08:55;;;;;;;4.80;1.95;;;8.60;99.90;;;;;;5108489;28;20108;-66
2022/09/28 00:11:21;;;;;;;2.45;1.60;;;8.60;99.90;;;;;;5109511;28;20023;-65
2022/09/28 00:13:52;;;;;;;6.72;2.05;;;8.70;99.90;;;;;;5107136;28;20129;-65
2022/09/28 00:16:20;;;;;;;8.40;2.08;;;8.60;99.90;;;;;;5105236;28;20059;-66
2022/09/28 00:18:46;;;;;;;4.20;1.70;;;8.60;99.90;;;;;;5109831;28;20081;-66
2022/09/28 00:21:15;;;;;;;6.00;1.77;;;8.60;99.90;;;;;;5106642;28;20031;-68
2022/09/28 00:26:27;;;;;;;4.07;1.65;;;8.60;99.90;;;;;;5107029;28;20093;-67
2022/09/28 00:28:54;;;;;;;3.95;1.95;;;8.60;99.90;;;;;;5101008;28;20031;-67
2022/09/28 00:31:20;;;;;;;3.15;1.55;;;8.70;99.90;;;;;;5104418;28;20028;-66
2022/09/28 00:33:50;;;;;;;4.88;1.50;;;8.70;99.90;;;;;;5108528;28;20012;-66
2022/09/28 00:36:15;;;;;;;7.45;1.90;;;8.70;99.90;;;;;;5103678;28;20047;-65
2022/09/28 00:38:41;;;;;;;2.95;1.42;;;8.70;99.90;;;;;;5099075;28;20063;-64
2022/09/28 00:41:10;;;;;;;3.55;1.58;;;8.70;99.90;;;;;;5103104;28;20061;-65
2022/09/28 00:43:35;;;;;;;3.40;1.27;;;8.70;99.90;;;;;;5104978;28;20020;-65
2022/09/28 00:46:04;;;;;;;5.43;1.33;;;8.70;99.90;;;;;;5105905;28;20442;-65
2022/09/28 00:48:38;;;;;;;2.33;1.17;;;8.70;99.90;;;;;;5106501;28;20063;-64
2022/09/28 00:51:10;;;;;;;0.93;0.90;;;8.70;99.90;;;;;;5104333;28;20031;-64
2022/09/28 00:53:39;;;;;;;2.08;1.17;;;8.70;99.90;;;;;;5108131;28;20055;-65
2022/09/28 00:56:08;;;;;;;1.40;0.95;;;8.80;99.90;;;;;;5109889;28;20076;-64
2022/09/28 00:58:38;;;;;;;2.72;1.70;;;8.70;99.90;;;;;;5108274;28;20022;-64
2022/09/28 01:01:04;;;;;;;2.22;1.40;;;8.70;99.90;;;;;;5109257;28;20110;-65
2022/09/28 01:03:31;;;;;;;4.18;1.10;;;8.80;99.90;;;;;;5105686;28;20024;-64
2022/09/28 01:06:00;;;;;;;3.00;1.13;;;8.70;99.90;;;;;;5109217;28;20023;-67
2022/09/28 01:08:28;;;;;;;3.90;1.58;;;8.80;99.90;;;;;;5109386;28;20106;-63
2022/09/28 01:10:53;;;;;;;3.72;1.20;;;8.80;99.90;;;;;;5110076;28;20027;-64
2022/09/28 01:13:20;;;;;;;1.10;0.90;;;8.70;99.90;;;;;;5102661;28;20019;-65
2022/09/28 01:16:03;;;;;;;4.72;1.15;;;8.70;99.90;;;;;;5104014;28;20497;-63
2022/09/28 01:18:56;;;;;;;2.47;1.20;;;8.70;99.90;;;;;;5107499;28;20059;-64
2022/09/28 01:21:23;;;;;;;1.63;0.90;;;8.60;99.90;;;;;;5106363;28;20024;-64
2022/09/28 01:24:10;;;;;;;2.65;1.20;;;8.70;99.90;;;;;;5102017;28;20404;-65
2022/09/28 01:26:52;;;;;;;4.53;1.23;;;8.60;99.90;;;;;;5108189;28;20068;-65
2022/09/28 01:29:26;;;;;;;3.75;1.20;;;8.60;99.90;;;;;;5102113;28;20493;-65
2022/09/28 01:31:58;;;;;;;;;;;8.60;99.90;;;;;;5109744;28;20431;-66
2022/09/28 01:34:33;;;;;;;2.10;1.20;;;8.60;99.90;;;;;;5109556;28;19911;-64
2022/09/28 01:37:03;;;;;;;2.63;1.25;;;8.60;99.90;;;;;;5112402;28;20032;-64
2022/09/28 01:39:35;;;;;;;1.65;1.20;;;8.60;99.90;;;;;;5112187;28;20055;-65
2022/09/28 01:42:10;;;;;;;1.88;1.10;;;8.50;99.90;;;;;;5112327;28;20055;-64
2022/09/28 01:44:40;;;;;;;3.70;1.73;;;8.50;99.90;;;;;;5110019;28;20031;-65
2022/09/28 01:47:09;;;;;;;2.08;1.45;;;8.60;99.90;;;;;;5113109;28;20374;-65
2022/09/28 01:49:44;;;;;;;2.78;1.30;;;8.50;99.90;;;;;;5107733;28;20020;-67
2022/09/28 01:52:15;;;;;;;4.07;1.70;;;8.50;99.90;;;;;;5100839;28;20569;-65
2022/09/28 01:55:01;;;;;;;5.63;2.20;;;8.50;99.90;;;;;;5110738;28;20020;-64
2022/09/28 01:57:53;;;;;;;2.83;1.73;;;8.50;99.90;;;;;;5106523;28;20015;-64
2022/09/28 02:00:21;;;;;;;5.53;2.60;;;8.60;99.90;;;;;;5109781;28;20034;-64
2022/09/28 02:02:55;;;;;;;2.88;1.60;;;8.60;99.90;;;;;;5112740;28;20031;-65
2022/09/28 02:05:27;;;;;;;1.85;1.50;;;8.60;99.90;;;;;;5109875;28;20038;-64
2022/09/28 02:08:02;;;;;;;6.20;2.03;;;8.60;99.90;;;;;;5109312;28;20084;-65
2022/09/28 02:10:39;;;;;;;4.32;1.70;;;8.60;99.90;;;;;;5104717;28;20509;-64
2022/09/28 02:13:23;;;;;;;4.40;2.42;;;8.60;99.90;;;;;;5104673;28;20076;-65
2022/09/28 02:16:04;;;;;;;2.17;1.90;;;8.70;99.90;;;;;;5107681;28;20023;-66
2022/09/28 02:18:30;;;;;;;6.80;2.30;;;8.70;99.90;;;;;;5111268;28;20027;-64
2022/09/28 02:21:03;;;;;;;4.57;1.70;;;8.70;99.90;;;;;;5109524;28;20038;-64
2022/09/28 02:23:32;;;;;;;7.57;3.25;;;8.70;99.90;;;;;;5103482;28;20019;-66
2022/09/28 02:26:03;;;;;;;4.82;2.22;;;8.60;99.90;;;;;;5111212;28;20043;-65
2022/09/28 02:28:29;;;;;;;7.65;2.92;;;8.60;99.90;;;;;;5107249;28;20023;-65
2022/09/28 02:30:54;;;;;;;5.70;2.88;;;8.70;99.90;;;;;;5111671;28;20028;-64
2022/09/28 02:33:25;;;;;;;7.55;4.13;;;8.60;99.90;;;;;;5109060;28;20032;-65
2022/09/28 02:35:51;;;;;;;14.13;4.28;;;8.70;99.90;;;;;;5108248;28;20023;-63
2022/09/28 02:38:16;;;;;;;7.78;4.28;;;8.70;99.90;;;;;;5106410;27;20034;-65
2022/09/28 02:40:48;;;;;;;12.23;4.75;;;8.70;99.90;;;;;;5111297;28;20027;-65
2022/09/28 02:43:23;;;;;;;12.57;4.22;;;8.70;99.90;;;;;;5105220;28;20035;-64
2022/09/28 02:46:21;;;;;;;16.17;5.53;;;8.70;99.90;;;;;;5107844;28;20028;-64
2022/09/28 02:49:01;;;;;;;13.35;5.80;;;8.80;99.90;;;;;;5097040;28;20043;-64
2022/09/28 02:51:58;;;;;;;10.75;5.40;;;8.70;99.90;;;;;;5110426;28;20048;-66
2022/09/28 02:54:31;;;;;;;10.55;5.55;;;8.80;99.90;;;;;;5108276;28;20112;-67
2022/09/28 02:57:12;;;;;;;8.35;4.93;;;8.90;99.90;;;;;;5102496;28;20028;-65
2022/09/28 02:59:49;;;;;;;17.00;4.65;;;8.90;99.90;;;;;;5106249;28;20028;-64
2022/09/28 03:02:31;;;;;;;15.50;5.88;;;8.90;99.90;;;;;;5102714;28;20020;-65
2022/09/28 03:04:59;;;;;;;15.55;6.32;;;8.90;99.90;;;;;;5111074;28;20102;-65
2022/09/28 03:07:31;;;;;;;9.85;5.47;;;8.90;99.90;;;;;;5110955;28;20485;-65
2022/09/28 03:10:14;;;;;;;18.40;5.82;;;8.90;99.90;;;;;;5111295;28;20514;-65
2022/09/28 03:12:43;;;;;;;12.38;6.00;;;8.80;99.90;;;;;;5102259;28;20024;-64
2022/09/28 03:15:19;;;;;;;12.60;6.03;;;8.90;99.90;;;;;;5095196;28;20020;-64
2022/09/28 03:17:45;;;;;;;19.52;6.25;;;8.90;99.90;;;;;;5099276;28;20695;-65
2022/09/28 03:20:10;;;;;;;13.48;6.07;;;8.90;99.90;;;;;;5102603;28;20103;-65
2022/09/28 03:22:37;;;;;;;14.05;5.53;;;9.00;99.90;;;;;;5104353;28;20073;-65
2022/09/28 03:25:04;;;;;;;14.13;5.90;;;8.90;99.90;;;;;;5099925;28;20016;-66
2022/09/28 03:27:29;;;;;;;18.98;6.30;;;8.90;99.90;;;;;;5104157;28;20181;-65
2022/09/28 03:29:55;;;;;;;19.63;6.45;;;8.90;99.90;;;;;;5104695;28;20110;-65
2022/09/28 03:32:20;;;;;;;19.77;7.68;;;8.90;99.90;;;;;;5103870;28;20084;-64
2022/09/28 03:34:46;;;;;;;20.45;8.57;;;8.90;99.90;;;;;;5100157;28;20024;-66
2022/09/28 03:37:11;;;;;;;15.55;6.80;;;9.00;99.90;;;;;;5105879;28;20023;-64
2022/09/28 03:39:37;;;;;;;18.13;8.75;;;9.00;99.90;;;;;;5111162;28;20031;-64
2022/09/28 03:42:02;;;;;;;14.27;8.15;;;9.00;99.90;;;;;;5109201;28;20111;-65
2022/09/28 03:44:28;;;;;;;11.30;7.53;;;9.00;99.90;;;;;;5110627;28;20146;-65
2022/09/28 03:46:53;;;;;;;13.98;8.18;;;9.00;99.90;;;;;;5109979;28;20027;-64
2022/09/28 03:49:19;;;;;;;18.80;7.55;;;9.00;99.90;;;;;;5105904;28;20507;-66
2022/09/28 03:51:45;;;;;;;17.10;8.88;;;9.00;99.90;;;;;;5107747;28;20035;-65
2022/09/28 03:54:11;;;;;;;19.65;8.93;;;9.10;99.90;;;;;;5110490;28;20084;-65
2022/09/28 03:56:37;;;;;;;18.77;7.85;;;9.00;99.90;;;;;;5102887;28;20020;-65
2022/09/28 03:59:03;;;;;;;15.32;8.85;;;9.00;99.90;;;;;;5107203;28;20481;-66
2022/09/28 04:01:29;;;;;;;16.05;8.60;;;9.00;99.90;;;;;;5104006;28;20031;-65
2022/09/28 04:03:57;;;;;;;19.63;9.90;;;9.00;99.90;;;;;;5109167;28;20143;-65
2022/09/28 04:06:24;;;;;;;17.60;8.80;;;9.10;99.90;;;;;;5106478;28;20111;-66
2022/09/28 04:08:50;;;;;;;16.85;9.70;;;9.10;99.90;;;;;;5106686;28;20710;-65
2022/09/28 04:11:16;;;;;;;22.67;11.30;;;9.20;99.90;;;;;;5104290;28;20055;-64
2022/09/28 04:13:41;;;;;;;21.20;10.13;;;9.20;99.90;;;;;;5104477;28;20469;-65
2022/09/28 04:16:09;;;;;;;22.55;11.18;;;9.20;99.90;;;;;;5107423;28;20024;-65
2022/09/28 04:18:34;;;;;;;26.08;12.48;;;9.20;99.90;;;;;;5101701;28;20542;-64
2022/09/28 04:21:08;;;;;;;21.83;11.90;;;9.30;99.90;;;;;;5107630;28;20093;-63
2022/09/28 04:23:35;;;;;;;19.90;12.27;;;9.20;99.90;;;;;;5105917;28;20031;-65
2022/09/28 04:26:02;;;;;;;23.35;11.63;;;9.30;99.90;;;;;;5104409;28;20032;-64
2022/09/28 04:31:17;;;;;;;23.15;11.48;;;9.20;99.90;;;;;;5110049;28;20404;-65
2022/09/28 04:33:42;;;;;;;20.45;10.95;;;9.20;99.90;;;;;;5109812;28;20015;-65
2022/09/28 04:36:09;;;;;;;25.92;10.85;;;9.20;99.90;;;;;;5108372;28;20028;-66
2022/09/28 04:38:36;;;;;;;15.88;9.70;;;9.20;99.90;;;;;;5110259;28;20032;-64
2022/09/28 04:41:02;;;;;;;21.45;10.65;;;9.20;99.90;;;;;;5107599;28;20028;-64
2022/09/28 04:43:27;;;;;;;22.38;11.00;;;9.20;99.90;;;;;;5098298;28;20088;-65
2022/09/28 04:46:06;;;;;;;16.95;10.32;;;9.20;99.90;;;;;;5109064;28;20032;-65
2022/09/28 04:48:31;;;;;;;17.77;9.40;;;9.20;99.90;;;;;;5104477;28;20024;-65
2022/09/28 04:50:59;;;;;;;20.65;10.80;;;9.20;99.90;;;;;;5105850;28;20030;-65
2022/09/28 04:53:26;;;;;;;16.35;9.00;;;9.20;99.90;;;;;;5104425;28;20028;-65
2022/09/28 04:56:14;;;;;;;19.15;10.13;;;9.20;99.90;;;;;;5102432;28;20039;-66
2022/09/28 04:58:40;;;;;;;19.75;10.85;;;9.20;99.90;;;;;;5103199;28;20055;-65
2022/09/28 05:01:09;;;;;;;21.38;10.32;;;9.20;99.90;;;;;;5107965;28;20671;-65
2022/09/28 05:03:35;;;;;;;19.33;10.02;;;9.10;99.90;;;;;;5106649;28;20035;-65
2022/09/28 05:06:01;;;;;;;19.58;10.52;;;9.10;99.90;;;;;;5106300;28;20043;-66
2022/09/28 05:08:27;;;;;;;14.38;9.30;;;9.20;99.90;;;;;;5112313;28;20083;-65
2022/09/28 05:10:59;;;;;;;16.77;9.45;;;9.10;99.90;;;;;;5112892;28;20047;-66
2022/09/28 05:13:26;;;;;;;18.60;9.93;;;9.10;99.90;;;;;;5106111;28;20126;-65
2022/09/28 05:15:53;;;;;;;15.88;9.48;;;9.10;99.90;;;;;;5106123;28;20048;-67
2022/09/28 05:18:19;;;;;;;21.73;10.23;;;9.10;99.90;;;;;;5110153;28;20028;-66
2022/09/28 05:20:45;;;;;;;19.70;10.70;;;9.00;99.90;;;;;;5103418;28;20043;-68
2022/09/28 05:23:11;;;;;;;19.83;10.27;;;9.00;99.90;;;;;;5102483;28;20083;-66
2022/09/28 05:25:38;;;;;;;23.48;10.68;;;9.00;99.90;;;;;;5099692;28;20513;-67
2022/09/28 05:28:04;;;;;;;18.40;9.80;;;9.00;99.90;;;;;;5108903;28;20040;-67
2022/09/28 05:30:30;;;;;;;18.33;9.82;;;9.00;99.90;;;;;;5108255;28;20019;-65
2022/09/28 05:32:56;;;;;;;27.88;12.45;;;9.00;99.90;;;;;;5105810;28;20414;-67
2022/09/28 05:35:21;;;;;;;21.10;10.15;;;9.00;99.90;;;;;;5104087;28;20501;-65
2022/09/28 05:37:48;;;;;;;19.95;9.57;;;9.00;99.90;;;;;;5105372;22;20047;-58
2022/09/28 05:40:14;;;;;;;18.85;10.45;;;9.00;99.90;;;;;;5067732;28;20025;-58
2022/09/28 05:42:40;;;;;;;18.98;10.95;;;9.00;99.90;;;;;;5068439;28;20031;-59
2022/09/28 05:45:07;;;;;;;18.70;10.82;;;9.00;99.90;;;;;;5060049;28;20632;-59
2022/09/28 05:47:40;;;;;;;17.65;10.10;;;9.00;99.90;;;;;;5058498;28;20390;-60
2022/09/28 05:50:08;;;;;;;20.55;10.13;;;9.10;99.90;;;;;;5046122;28;20036;-58
2022/09/28 05:52:33;;;;;;;17.92;10.30;;;9.10;99.90;;;;;;5049834;28;20040;-59
2022/09/28 05:54:59;;;;;;;14.70;8.88;;;9.10;99.90;;;;;;5047244;28;20029;-60
2022/09/28 05:57:25;;;;;;;17.45;10.10;;;9.10;99.90;;;;;;5050063;28;20021;-60
2022/09/28 05:59:50;;;;;;;14.32;8.63;;;9.10;99.90;;;;;;5048370;28;20025;-58
2022/09/28 06:02:16;;;;;;;16.67;9.20;;;9.00;99.90;;;;;;5048759;28;20036;-60
2022/09/28 06:04:41;;;;;;;17.40;8.85;;;8.90;99.90;;;;;;5046188;28;20041;-59
2022/09/28 06:07:07;;;;;;;18.40;10.15;;;9.00;99.90;;;;;;5049242;28;20021;-57
2022/09/28 06:09:32;;;;;;;16.58;8.90;;;9.10;99.90;;;;;;5046011;28;20033;-58
2022/09/28 06:11:58;;;;;;;11.98;8.20;;;9.00;99.90;;;;;;5050380;28;20022;-60
2022/09/28 06:14:24;;;;;;;22.15;9.10;;;9.00;99.90;;;;;;5045267;28;20029;-60
2022/09/28 06:16:50;;;;;;;16.00;8.07;;;9.00;99.90;;;;;;5051163;28;20296;-57
2022/09/28 06:19:16;;;;;;;16.48;8.32;;;9.00;99.90;;;;;;5049198;28;20032;-58
2022/09/28 06:21:41;;;;;;;20.67;8.65;;;9.00;99.90;;;;;;5050530;28;20702;-56
2022/09/28 06:24:07;;;;;;;14.63;8.23;;;8.90;99.90;;;;;;5045971;28;20040;-58
2022/09/28 06:26:32;;;;;;;18.35;8.77;;;8.90;99.90;;;;;;5044228;28;20102;-59
2022/09/28 06:28:59;;;;;;;16.08;8.05;;;9.00;99.90;;;;;;5050045;28;20548;-57
2022/09/28 06:31:26;;;;;;;16.55;8.85;;;9.10;99.90;;;;;;5049756;28;20047;-58
2022/09/28 06:33:52;;;;;;;13.23;7.07;;;9.10;99.90;;;;;;5046893;28;20021;-59
2022/09/28 06:36:19;;;;;;;14.55;8.38;;;9.10;99.90;;;;;;5048782;28;20036;-57
2022/09/28 06:38:46;;;;;;;14.73;7.65;;;9.10;99.90;;;;;;5048837;28;20466;-56
2022/09/28 06:41:11;;;;;;;10.15;6.38;;;9.20;99.90;;;;;;5047995;28;20025;-55
2022/09/28 06:43:40;;;;;;;18.50;7.00;;;9.20;99.90;;;;;;5045221;28;20107;-59
2022/09/28 06:46:08;;;;;;;16.90;7.53;;;9.20;99.90;;;;;;5045451;28;20556;-59
2022/09/28 06:48:34;;;;;;;12.93;7.35;;;9.20;99.90;;;;;;5049146;28;20033;-56
2022/09/28 06:51:01;;;;;;;12.80;7.43;;;9.20;99.90;;;;;;5050721;28;20032;-55
2022/09/28 06:53:27;;;;;;;13.65;7.57;;;9.30;99.90;;;;;;5046730;28;20314;-58
2022/09/28 06:55:54;;;;;;;15.68;7.30;;;9.20;99.90;;;;;;5040069;28;20108;-59
2022/09/28 06:58:21;;;;;;;13.90;6.75;;;9.20;99.90;;;;;;5046741;28;20033;-57
2022/09/28 07:00:49;;;;;;;11.60;6.68;;;9.30;99.90;;;;;;5042047;28;20029;-56
2022/09/28 07:03:18;;;;;;;15.88;6.20;;;9.30;99.90;;;;;;5049556;28;20419;-55
2022/09/28 07:05:47;;;;;;;9.63;5.00;;;9.40;99.90;;;;;;5045680;28;20017;-56
2022/09/28 07:08:13;;;;;;;14.75;5.97;;;9.40;99.90;;;;;;5049463;28;20467;-56
2022/09/28 07:10:43;;;;;;;11.38;6.28;;;9.40;99.90;;;;;;5045418;28;20025;-55
2022/09/28 07:13:09;;;;;;;13.07;5.88;;;9.40;99.90;;;;;;5041482;28;20029;-56
2022/09/28 07:15:36;;;;;;;11.45;5.90;;;9.50;99.90;;;;;;5040804;28;20037;-57
2022/09/28 07:18:04;;;;;;;11.35;5.55;;;9.50;99.90;;;;;;5043359;28;20037;-61
2022/09/28 07:20:34;;;;;;;9.00;5.55;;;9.60;99.90;;;;;;5045873;28;20071;-58
2022/09/28 07:23:02;;;;;;;10.38;5.82;;;9.60;99.90;;;;;;5043367;28;20105;-59
2022/09/28 07:25:29;;;;;;;8.77;5.30;;;9.50;99.90;;;;;;5042469;28;20031;-56
2022/09/28 07:27:58;;;;;;;11.38;5.07;;;9.50;99.90;;;;;;5047822;28;20028;-57
2022/09/28 07:30:26;;;;;;;8.90;5.47;;;9.60;99.90;;;;;;5043568;28;20025;-59
2022/09/28 07:32:52;;;;;;;11.32;5.10;;;9.60;99.90;;;;;;5046806;28;20104;-59
2022/09/28 07:35:18;;;;;;;9.60;5.38;;;9.60;99.90;;;;;;5045074;28;20036;-60
2022/09/28 07:37:43;;;;;;;8.75;4.90;;;9.60;99.90;;;;;;5040678;28;20032;-57
2022/09/28 07:42:53;;;;;;;10.18;4.85;;;9.70;99.90;;;;;;5045807;28;20036;-55
2022/09/28 07:45:23;;;;;;;8.80;4.90;;;9.70;99.90;;;;;;5043808;28;20032;-56
2022/09/28 07:47:49;;;;;;;13.20;4.53;;;9.80;99.90;;;;;;5039876;28;20438;-60
2022/09/28 07:50:15;;;;;;;10.55;4.93;;;9.80;99.90;;;;;;5045260;28;20039;-58
2022/09/28 07:52:43;;;;;;;8.85;4.13;;;9.80;99.90;;;;;;5036922;28;20033;-58
2022/09/28 07:55:08;;;;;;;11.20;4.60;;;9.90;99.90;;;;;;5045546;28;20025;-59
2022/09/28 07:57:35;;;;;;;9.77;3.55;;;9.90;99.90;;;;;;5046148;28;20086;-57
2022/09/28 08:00:02;;;;;;;6.82;4.30;;;9.90;99.90;;;;;;5043459;28;20032;-58
2022/09/28 08:02:32;;;;;;;13.57;4.70;;;9.90;99.90;;;;;;5041856;28;20017;-55
2022/09/28 08:04:58;;;;;;;8.98;5.25;;;9.90;99.90;;;;;;5047234;28;20025;-56
2022/09/28 08:07:24;;;;;;;11.30;5.30;;;10.00;99.90;;;;;;5048286;28;20020;-55
2022/09/28 08:09:50;;;;;;;8.65;4.47;;;10.00;99.90;;;;;;5041168;28;20103;-58
2022/09/28 08:12:18;;;;;;;9.32;4.68;;;10.10;99.90;;;;;;5038318;28;20025;-57
2022/09/28 08:14:44;;;;;;;13.65;3.42;;;10.10;99.90;;;;;;5038936;28;20029;-59
2022/09/28 08:17:10;;;;;;;5.43;3.50;;;10.10;99.90;;;;;;5044994;28;20029;-57
2022/09/28 08:22:20;;;;;;;9.23;4.25;;;10.10;99.90;;;;;;5037989;28;20083;-57
2022/09/28 08:24:46;;;;;;;13.00;3.65;;;10.10;99.90;;;;;;5041604;28;20498;-56
2022/09/28 08:27:14;;;;;;;7.93;3.38;;;10.10;99.90;;;;;;5038579;28;20116;-57
2022/09/28 08:29:41;;;;;;;4.75;3.13;;;10.20;99.90;;;;;;5042261;28;20087;-58
2022/09/28 08:32:08;;;;;;;4.28;2.70;;;10.20;99.90;;;;;;5038913;28;20037;-56
2022/09/28 08:34:39;;;;;;;7.68;3.03;;;10.10;99.90;;;;;;5041433;28;20045;-58
2022/09/28 08:37:06;;;;;;;8.07;3.08;;;10.20;99.90;;;;;;5036762;28;20520;-57
2022/09/28 08:39:33;;;;;;;10.48;3.75;;;10.20;99.90;;;;;;5039673;28;20033;-58
2022/09/28 08:42:30;;;;;;;8.15;2.80;;;10.30;99.90;;;;;;5041285;28;21826;-55
2022/09/28 08:45:14;;;;;;;6.00;3.33;;;10.40;99.90;;;;;;5038550;28;20075;-56
2022/09/28 08:50:55;;;;;;;5.38;3.20;;;10.40;99.90;;;;;;5037683;28;20106;-56
2022/09/28 08:53:34;;;;;;;9.35;3.22;;;10.40;99.90;;;;;;5045749;28;20017;-59
2022/09/28 08:56:04;;;;;;;11.68;3.17;;;10.50;99.90;;;;;;5043634;28;20056;-55
2022/09/28 08:58:35;;;;;;;5.07;2.60;;;10.50;99.90;;;;;;5049654;28;20029;-56
2022/09/28 09:01:01;;;;;;;10.13;2.33;;;10.60;99.90;;;;;;5047981;28;20025;-58
2022/09/28 09:03:31;;;;;;;2.63;1.90;;;10.60;99.90;;;;;;5046396;28;20039;-58
2022/09/28 09:06:18;;;;;;;7.40;2.17;;;10.70;99.90;;;;;;5045159;28;20040;-58
2022/09/28 09:08:54;;;;;;;6.63;2.00;;;10.70;99.90;;;;;;5046810;28;20120;-57
2022/09/28 09:11:25;;;;;;;5.82;1.25;;;10.70;99.90;;;;;;5045178;28;20025;-60
2022/09/28 09:13:51;;;;;;;4.28;2.17;;;10.80;99.90;;;;;;5043559;28;20099;-59
2022/09/28 09:16:44;;;;;;;4.82;1.30;;;10.90;99.90;;;;;;5044082;28;20052;-57
2022/09/28 09:19:49;;;;;;;8.02;1.88;;;10.90;99.90;;;;;;5041830;28;20033;-60
2022/09/28 09:22:24;;;;;;;6.13;2.10;;;11.00;99.90;;;;;;5044730;28;20049;-61
2022/09/28 09:24:59;;;;;;;9.13;1.55;;;11.10;99.90;;;;;;5046335;28;20074;-58
2022/09/28 09:27:49;;;;;;;3.05;1.20;;;11.10;99.90;;;;;;5047769;28;20037;-59
2022/09/28 09:30:25;;;;;;;3.33;1.20;;;11.20;99.90;;;;;;5044400;28;20550;-59
2022/09/28 09:32:59;;;;;;;5.05;1.20;;;11.10;99.90;;;;;;5046807;28;20434;-59
2022/09/28 09:35:33;;;;;;;1.60;0.80;;;11.10;99.90;;;;;;5045968;28;20025;-58
2022/09/28 09:38:36;;;;;;;7.05;1.55;;;11.10;99.90;;;;;;5042031;28;20025;-61
2022/09/28 09:41:12;;;;;;;6.22;0.98;;;11.20;99.90;;;;;;5045072;28;20032;-57
2022/09/28 09:44:04;;;;;;;4.55;1.42;;;11.30;99.90;;;;;;5047107;28;20047;-56
2022/09/28 09:46:41;;;;;;;7.22;1.27;;;11.50;99.90;;;;;;5035771;28;20732;-59
2022/09/28 09:49:44;;;;;;;13.05;1.55;;;11.60;99.90;;;;;;5035806;28;20029;-60
2022/09/28 09:52:32;;;;;;;7.93;1.80;;;11.80;99.90;;;;;;5041853;28;20572;-61
2022/09/28 09:55:14;;;;;;;3.13;1.23;;;11.80;99.90;;;;;;5041462;28;20033;-59
2022/09/28 09:58:02;;;;;;;5.18;1.67;;;11.80;99.90;;;;;;5044619;28;20025;-60
2022/09/28 10:00:28;;;;;;;8.20;1.92;;;11.80;99.90;;;;;;5048297;28;20516;-58
2022/09/28 10:02:56;;;;;;;1.92;0.60;;;11.90;99.90;;;;;;5048040;28;20104;-59
2022/09/28 10:05:26;;;;;;;5.13;1.63;;;12.00;99.90;;;;;;5045940;28;20037;-57
2022/09/28 10:07:58;;;;;;;6.55;0.85;;;12.10;99.90;;;;;;5041218;28;20032;-60
2022/09/28 10:10:34;;;;;;;2.88;0.95;;;12.20;99.90;;;;;;5040230;28;20044;-58
2022/09/28 10:13:00;;;;;;;0.65;0.40;;;12.40;99.90;;;;;;5047980;28;20037;-58
2022/09/28 10:15:34;;;;;;;2.17;0.65;;;12.30;99.90;;;;;;5049966;28;20064;-62
2022/09/28 10:18:05;;;;;;;3.80;1.23;;;12.30;99.90;;;;;;5046050;28;20043;-59
2022/09/28 10:20:35;;;;;;;1.55;0.50;;;12.40;99.90;;;;;;5051386;28;20251;-57
2022/09/28 10:23:03;;;;;;;8.27;0.68;;;12.40;99.90;;;;;;5049670;28;20028;-57
2022/09/28 10:25:32;;;;;;;4.10;0.85;;;12.30;99.90;;;;;;5047315;28;20022;-58
2022/09/28 10:28:00;;;;;;;9.00;0.70;;;12.40;99.90;;;;;;5048303;28;20041;-59
2022/09/28 10:30:25;;;;;;;2.40;0.70;;;12.40;99.90;;;;;;5051011;28;20032;-59
2022/09/28 10:32:58;;;;;;;7.50;1.00;;;12.40;99.90;;;;;;5044905;28;20378;-60
2022/09/28 10:35:25;;;;;;;3.85;0.88;;;12.50;99.90;;;;;;5046107;28;20052;-58
2022/09/28 10:37:58;;;;;;;2.58;0.93;;;12.50;99.90;;;;;;5043797;28;20401;-60
2022/09/28 10:40:38;;;;;;;2.42;0.60;;;12.60;99.90;;;;;;5046378;28;20155;-58
2022/09/28 10:43:22;;;;;;;2.65;0.80;;;12.60;99.90;;;;;;5045013;28;20025;-60
2022/09/28 10:45:58;;;;;;;1.80;0.70;;;12.80;99.90;;;;;;5047796;28;20017;-56
2022/09/28 10:48:23;;;;;;;2.58;0.65;;;13.10;99.90;;;;;;5049273;28;20029;-59
2022/09/28 10:51:03;;;;;;;1.67;0.82;;;13.30;99.90;;;;;;5050140;28;20029;-56
2022/09/28 10:53:28;;;;;;;2.50;0.82;;;13.30;99.90;;;;;;5047989;28;20028;-57
2022/09/28 10:56:07;;;;;;;4.75;1.20;;;13.20;99.90;;;;;;5050464;28;20397;-59
2022/09/28 10:58:40;;;;;;;1.40;0.80;;;13.50;99.90;;;;;;5052364;28;20029;-57
2022/09/28 11:01:13;;;;;;;1.90;1.00;;;13.60;99.90;;;;;;5051014;28;20021;-59
2022/09/28 11:03:56;;;;;;;2.03;1.00;;;13.60;99.90;;;;;;5052506;28;20040;-56
2022/09/28 11:06:43;;;;;;;1.58;0.82;;;13.60;99.90;;;;;;5049074;28;20025;-57
2022/09/28 11:09:30;;;;;;;6.15;1.00;;;13.90;99.90;;;;;;5051668;28;20508;-57
2022/09/28 11:12:01;;;;;;;7.95;1.25;;;13.90;99.90;;;;;;5051263;28;20029;-57
2022/09/28 11:14:36;;;;;;;4.95;0.93;;;13.90;99.90;;;;;;5052252;28;20065;-57
2022/09/28 11:17:30;;;;;;;6.65;0.85;;;13.70;99.90;;;;;;5050370;28;20032;-58
2022/09/28 11:20:20;;;;;;;1.52;0.90;;;13.60;99.90;;;;;;5051375;28;20033;-56
2022/09/28 11:22:47;;;;;;;2.13;1.10;;;13.50;99.90;;;;;;5038953;28;20043;-59
2022/09/28 11:25:15;;;;;;;6.97;1.52;;;13.40;99.90;;;;;;5050737;28;20029;-57
2022/09/28 11:27:53;;;;;;;4.03;1.92;;;13.30;99.90;;;;;;5051837;28;20021;-56
2022/09/28 11:30:29;;;;;;;5.53;1.30;;;13.20;99.90;;;;;;5050982;28;20029;-56
2022/09/28 11:33:24;;;;;;;3.75;1.10;;;13.40;99.90;;;;;;5050094;28;20457;-57
2022/09/28 11:36:10;;;;;;;6.07;1.17;;;13.60;99.90;;;;;;5039578;28;20409;-60
2022/09/28 11:38:48;;;;;;;1.80;0.90;;;13.80;99.90;;;;;;5105273;22;20047;-61
2022/09/28 11:41:35;;;;;;;2.55;0.70;;;14.20;99.90;;;;;;5109731;28;20024;-62
2022/09/28 11:44:06;;;;;;;3.38;0.70;;;14.50;99.90;;;;;;5102974;28;20035;-62
2022/09/28 11:47:07;;;;;;;4.40;0.98;;;14.70;99.90;;;;;;5105532;28;20020;-62
2022/09/28 11:49:56;;;;;;;2.10;0.80;;;15.20;99.90;;;;;;5085188;28;20032;-62
2022/09/28 11:52:28;;;;;;;5.95;0.82;;;15.60;99.90;;;;;;5071436;28;20490;-62
2022/09/28 11:54:55;;;;;;;3.05;0.60;;;15.80;99.90;;;;;;5077544;28;20059;-62
2022/09/28 11:57:27;;;;;;;2.85;0.70;;;15.50;99.90;;;;;;5075297;28;20635;-63
2022/09/28 12:00:01;;;;;;;1.85;0.45;;;15.20;99.90;;;;;;5088091;28;20028;-63
2022/09/28 12:02:34;;;;;;;5.47;0.70;;;14.80;99.90;;;;;;5083330;28;20038;-63
2022/09/28 12:05:25;;;;;;;5.50;0.47;;;14.50;99.90;;;;;;5076669;28;20036;-62
2022/09/28 12:07:58;;;;;;;0.63;0.40;;;14.50;99.90;;;;;;5087249;28;20070;-62
2022/09/28 12:10:30;;;;;;;1.50;0.73;;;14.30;99.90;;;;;;5086027;28;20572;-63
2022/09/28 12:13:02;;;;;;;1.33;0.40;;;14.50;99.90;;;;;;5081374;28;20056;-63
2022/09/28 12:15:40;;;;;;;2.28;0.55;;;14.50;99.90;;;;;;5082630;28;20078;-61
2022/09/28 12:18:11;;;;;;;3.03;0.57;;;14.30;99.90;;;;;;5084957;28;20029;-62
2022/09/28 12:21:06;;;;;;;1.98;0.55;;;14.30;99.90;;;;;;5082879;28;20385;-61
2022/09/28 12:23:37;;;;;;;2.65;0.63;;;14.30;99.90;;;;;;5056419;28;20063;-61
2022/09/28 12:26:10;;;;;;;3.22;0.45;;;14.20;99.90;;;;;;5080088;28;20684;-60
2022/09/28 12:28:50;;;;;;;0.47;0.43;;;14.10;99.90;;;;;;5085812;28;20111;-61
2022/09/28 12:31:18;;;;;;;2.63;0.50;;;14.00;99.90;;;;;;5083207;28;20567;-62
2022/09/28 12:33:48;;;;;;;4.28;0.60;;;14.00;99.90;;;;;;5087033;28;20078;-63
2022/09/28 12:36:31;;;;;;;4.57;0.65;;;13.90;99.90;;;;;;5083066;28;20111;-63
2022/09/28 12:39:03;;;;;;;2.28;0.75;;;13.80;99.90;;;;;;5080934;28;20039;-62
2022/09/28 12:41:35;;;;;;;1.77;0.65;;;13.70;99.90;;;;;;5086264;28;20024;-62
2022/09/28 12:44:16;;;;;;;1.42;0.70;;;13.70;99.90;;;;;;5082751;28;20061;-61
2022/09/28 12:46:54;;;;;;;0.93;0.50;;;13.60;99.90;;;;;;5078775;28;20020;-59
2022/09/28 12:49:51;;;;;;;4.13;0.68;;;13.60;99.90;;;;;;5085573;28;20032;-62
2022/09/28 12:52:23;;;;;;;4.25;1.20;;;13.60;99.90;;;;;;5086905;28;21875;-62
2022/09/28 12:55:23;;;;;;;1.25;0.70;;;13.70;99.90;;;;;;5076509;28;20398;-61
2022/09/28 12:58:02;;;;;;;2.63;1.10;;;13.60;99.90;;;;;;5083439;28;20016;-61
2022/09/28 13:00:46;;;;;;;1.92;1.00;;;13.70;99.90;;;;;;5086732;28;20027;-62
2022/09/28 13:03:46;;;;;;;1.65;0.70;;;13.70;99.90;;;;;;5086844;28;20576;-62
2022/09/28 13:06:33;;;;;;;3.28;0.93;;;13.80;99.90;;;;;;5086851;28;20032;-61
2022/09/28 13:09:01;;;;;;;5.85;1.08;;;13.90;99.90;;;;;;5082892;28;20024;-61
2022/09/28 13:12:02;;;;;;;1.38;0.68;;;13.90;99.90;;;;;;5083497;28;20202;-62
2022/09/28 13:14:52;;;;;;;2.80;0.80;;;13.90;99.90;;;;;;5084642;28;20056;-62
2022/09/28 13:17:38;;;;;;;2.80;0.95;;;13.80;99.90;;;;;;5083467;28;20081;-61
2022/09/28 13:20:43;;;;;;;5.43;0.63;;;13.90;99.90;;;;;;5083984;28;20028;-61
2022/09/28 13:23:26;;;;;;;3.53;0.63;;;13.90;99.90;;;;;;5076013;28;20099;-61
2022/09/28 13:26:19;;;;;;;3.92;0.63;;;14.10;99.90;;;;;;5083281;28;20104;-61
2022/09/28 13:28:46;;;;;;;7.38;1.13;;;14.20;99.90;;;;;;5086162;28;20036;-62